Sao Sebastiao do Cai, Brazil
Current Conditions -  °F | °C
As of 10:00 AM on Friday 24 Oct 2014 (Local Time) from SBCO Reporting Station
Haze Haze  
Wind Chill: 70°   Ceiling: 1000
Heat Index: 70°   Visibility: 2.5mi
Dew Point: 63°   Wind: 3mph
Humidity: 78%   Direction: 100°E
Pressure: 29.97"   Gusts: NA
Location:  29.65°S, 51.17°W
Report Text: SBCO 241200Z 10003KT 4000 BR SCT005 BKN010 21/17 Q1015
Loading
Personal Weather Stations






























Interactive Weather Map
Tropical Storm Tracking
New forecast layout! Learn more

10-Day Weather Forecast

Advertisements
Track Severe Weather on mobile